createdAt,value
2017-11-12T00:00:20.671Z,12.93
2017-11-12T00:02:48.800Z,13.63
2017-11-12T00:05:17.719Z,11.80
2017-11-12T00:07:45.866Z,12.23
2017-11-12T00:10:14.797Z,12.80
2017-11-12T00:12:42.918Z,12.57
2017-11-12T00:15:11.819Z,13.73
2017-11-12T00:17:40.735Z,13.07
2017-11-12T00:20:08.887Z,12.83
2017-11-12T00:22:37.831Z,13.27
2017-11-12T00:25:05.960Z,13.83
2017-11-12T00:27:34.083Z,13.63
2017-11-12T00:30:02.242Z,12.57
2017-11-12T00:32:30.449Z,13.17
2017-11-12T00:34:58.592Z,13.00
2017-11-12T00:37:26.784Z,13.03
2017-11-12T00:39:54.931Z,13.20
2017-11-12T00:42:23.070Z,13.43
2017-11-12T00:44:51.214Z,14.80
2017-11-12T00:47:20.102Z,13.10
2017-11-12T00:49:49.010Z,15.50
2017-11-12T00:52:17.338Z,12.87
2017-11-12T00:54:45.460Z,13.33
2017-11-12T00:57:13.594Z,12.37
2017-11-12T00:59:41.750Z,14.00
2017-11-12T01:02:09.898Z,13.30
2017-11-12T01:04:38.883Z,13.20
2017-11-12T01:07:07.032Z,14.20
2017-11-12T01:09:35.942Z,12.80
2017-11-12T01:12:04.128Z,11.70
2017-11-12T01:14:32.261Z,11.70
2017-11-12T01:17:00.406Z,10.97
2017-11-12T01:19:30.055Z,11.33
2017-11-12T01:21:58.180Z,12.97
2017-11-12T01:24:26.336Z,12.87
2017-11-12T01:26:54.461Z,12.60
2017-11-12T01:29:22.578Z,13.37
2017-11-12T01:31:50.727Z,14.10
2017-11-12T01:34:18.865Z,15.17
2017-11-12T01:36:48.245Z,14.27
2017-11-12T01:39:16.360Z,13.30
2017-11-12T01:41:44.526Z,14.50
2017-11-12T01:44:13.429Z,15.53
2017-11-12T01:46:41.557Z,14.77
2017-11-12T01:49:09.702Z,14.97
2017-11-12T01:51:37.829Z,15.40
2017-11-12T01:54:05.955Z,13.20
2017-11-12T01:56:34.085Z,14.37
2017-11-12T01:59:02.214Z,14.57
2017-11-12T02:01:30.435Z,13.63
2017-11-12T02:03:59.335Z,14.37
2017-11-12T02:06:27.483Z,14.20
2017-11-12T02:08:56.430Z,14.87
2017-11-12T02:11:24.570Z,13.83
2017-11-12T02:13:52.751Z,14.60
2017-11-12T02:16:20.893Z,15.17
2017-11-12T02:18:49.812Z,16.60
2017-11-12T02:21:17.944Z,15.77
2017-11-12T02:23:46.845Z,15.87
2017-11-12T02:26:15.733Z,14.27
2017-11-12T02:28:44.642Z,14.67
2017-11-12T02:31:12.825Z,14.80
2017-11-12T02:33:40.969Z,15.67
2017-11-12T02:36:09.171Z,14.27
2017-11-12T02:38:37.300Z,14.87
2017-11-12T02:41:06.206Z,14.93
2017-11-12T02:43:35.101Z,13.40
2017-11-12T02:46:03.256Z,13.30
2017-11-12T02:48:32.165Z,13.90
2017-11-12T02:51:00.570Z,14.27
2017-11-12T02:53:28.698Z,12.60
2017-11-12T02:55:57.589Z,12.90
2017-11-12T02:58:26.529Z,14.53
2017-11-12T03:00:54.697Z,15.57
2017-11-12T03:03:22.819Z,16.40
2017-11-12T03:05:51.705Z,14.90
2017-11-12T03:08:19.849Z,13.30
2017-11-12T03:10:47.983Z,15.10
2017-11-12T03:13:16.118Z,15.83
2017-11-12T03:15:44.241Z,16.60
2017-11-12T03:18:12.410Z,16.03
2017-11-12T03:20:41.296Z,14.10
2017-11-12T03:23:09.426Z,13.93
2017-11-12T03:25:38.686Z,14.40
2017-11-12T03:28:06.813Z,14.70
2017-11-12T03:30:35.715Z,14.80
2017-11-12T03:33:03.889Z,14.47
2017-11-12T03:35:32.021Z,15.07
2017-11-12T03:38:01.705Z,14.20
2017-11-12T03:40:29.837Z,11.70
2017-11-12T03:42:57.965Z,14.37
2017-11-12T03:45:26.103Z,13.17
2017-11-12T03:47:54.239Z,15.87
2017-11-12T03:50:22.429Z,14.97
2017-11-12T03:52:50.570Z,15.50
2017-11-12T03:55:18.709Z,15.03
2017-11-12T03:57:46.846Z,15.27
2017-11-12T04:00:14.978Z,14.20
2017-11-12T04:02:43.111Z,13.53
2017-11-12T04:05:11.230Z,14.13
2017-11-12T04:07:39.380Z,13.90
2017-11-12T04:10:07.508Z,12.37
2017-11-12T04:12:35.649Z,13.30
2017-11-12T04:15:04.568Z,12.53
2017-11-12T04:17:32.709Z,12.53
2017-11-12T04:20:02.367Z,12.87
2017-11-12T04:22:30.829Z,12.33
2017-11-12T04:24:58.950Z,12.73
2017-11-12T04:27:27.086Z,11.43
2017-11-12T04:29:55.229Z,11.50
2017-11-12T04:32:24.116Z,11.67
2017-11-12T04:34:53.017Z,11.50
2017-11-12T04:37:21.906Z,12.53
2017-11-12T04:39:50.153Z,12.43
2017-11-12T04:42:18.276Z,11.40
2017-11-12T04:44:46.509Z,10.23
2017-11-12T04:47:15.420Z,10.17
2017-11-12T04:49:43.555Z,11.70
2017-11-12T04:52:11.718Z,10.43
2017-11-12T04:54:39.862Z,10.57
2017-11-12T04:57:07.985Z,10.80
2017-11-12T04:59:36.931Z,9.87
2017-11-12T05:02:05.056Z,10.10
2017-11-12T05:04:33.959Z,9.77
2017-11-12T05:07:02.865Z,9.10
2017-11-12T05:09:30.990Z,8.37
2017-11-12T05:11:59.126Z,9.20
2017-11-12T05:14:27.262Z,9.80
2017-11-12T05:16:56.291Z,8.20
2017-11-12T05:19:24.512Z,8.90
2017-11-12T05:21:52.684Z,8.63
2017-11-12T05:24:20.857Z,8.40
2017-11-12T05:26:49.754Z,8.10
2017-11-12T05:29:18.651Z,8.43
2017-11-12T05:31:47.556Z,8.50
2017-11-12T05:34:15.685Z,8.83
2017-11-12T05:36:43.813Z,8.67
2017-11-12T05:39:11.944Z,9.50
2017-11-12T05:41:40.825Z,7.53
2017-11-12T05:44:09.066Z,8.30
2017-11-12T05:46:37.212Z,7.97
2017-11-12T05:49:05.443Z,9.33
2017-11-12T05:51:33.586Z,8.70
2017-11-12T05:54:01.718Z,8.20
2017-11-12T05:56:29.856Z,8.20
2017-11-12T05:58:58.004Z,8.87
2017-11-12T06:01:26.114Z,7.80
2017-11-12T06:03:54.249Z,8.17
2017-11-12T06:06:22.395Z,9.13
2017-11-12T06:08:50.511Z,8.33
2017-11-12T06:11:18.644Z,8.53
2017-11-12T06:13:46.796Z,9.27
2017-11-12T06:16:15.705Z,9.20
2017-11-12T06:18:45.090Z,8.63
2017-11-12T06:21:13.233Z,9.93
2017-11-12T06:23:41.350Z,8.90
2017-11-12T06:26:09.494Z,9.37
2017-11-12T06:28:38.378Z,9.30
2017-11-12T06:31:07.307Z,10.20
2017-11-12T06:33:35.457Z,9.73
2017-11-12T06:36:03.581Z,8.03
2017-11-12T06:38:31.726Z,8.23
2017-11-12T06:40:59.852Z,8.50
2017-11-12T06:43:28.012Z,9.23
2017-11-12T06:45:56.124Z,9.10
2017-11-12T06:48:24.290Z,9.47
2017-11-12T06:50:53.242Z,9.17
2017-11-12T06:53:21.374Z,8.93
2017-11-12T06:55:49.543Z,10.00
2017-11-12T06:58:17.697Z,10.07
2017-11-12T07:00:45.856Z,9.00
2017-11-12T07:03:14.764Z,9.93
2017-11-12T07:05:43.677Z,9.87
2017-11-12T07:08:11.797Z,9.83
2017-11-12T07:10:39.949Z,10.20
2017-11-12T07:13:08.073Z,10.13
2017-11-12T07:15:36.229Z,9.57
2017-11-12T07:18:04.366Z,9.60
2017-11-12T07:20:32.495Z,9.30
2017-11-12T07:23:00.641Z,9.33
2017-11-12T07:25:30.313Z,9.40
2017-11-12T07:27:58.439Z,9.87
2017-11-12T07:30:26.561Z,9.70
2017-11-12T07:32:54.705Z,9.70
2017-11-12T07:35:22.837Z,9.20
2017-11-12T07:37:51.733Z,9.40
2017-11-12T07:40:20.625Z,9.83
2017-11-12T07:42:49.513Z,9.00
2017-11-12T07:45:18.436Z,9.17
2017-11-12T07:47:46.564Z,8.10
2017-11-12T07:50:15.474Z,9.30
2017-11-12T07:52:44.374Z,10.13
2017-11-12T07:55:13.278Z,11.63
2017-11-12T07:57:41.409Z,12.50
2017-11-12T08:00:10.326Z,13.50
2017-11-12T08:02:38.487Z,11.07
2017-11-12T08:05:07.411Z,11.10
2017-11-12T08:07:35.569Z,11.40
2017-11-12T08:10:03.970Z,11.33
2017-11-12T08:12:32.213Z,10.43
2017-11-12T08:15:01.172Z,10.67
2017-11-12T08:17:30.074Z,10.10
2017-11-12T08:19:59.058Z,9.97
2017-11-12T08:22:27.174Z,9.77
2017-11-12T08:24:55.341Z,10.30
2017-11-12T08:27:24.263Z,11.20
2017-11-12T08:29:52.413Z,9.20
2017-11-12T08:32:20.597Z,9.83
2017-11-12T08:34:48.701Z,9.30
2017-11-12T08:37:17.837Z,9.60
2017-11-12T08:39:45.977Z,10.10
2017-11-12T08:42:14.225Z,11.63
2017-11-12T08:44:42.432Z,10.50
2017-11-12T08:47:11.416Z,9.00
2017-11-12T08:49:39.526Z,7.90
2017-11-12T08:52:07.670Z,8.73
2017-11-12T08:54:35.794Z,10.53
2017-11-12T08:57:03.940Z,9.90
2017-11-12T08:59:32.070Z,10.73
2017-11-12T09:02:00.213Z,9.20
2017-11-12T09:04:28.353Z,7.83
2017-11-12T09:06:56.492Z,7.23
2017-11-12T09:09:25.425Z,7.37
2017-11-12T09:11:53.579Z,8.10
2017-11-12T09:14:21.775Z,7.97
2017-11-12T09:16:49.898Z,8.40
2017-11-12T09:19:18.045Z,6.67
2017-11-12T09:21:46.180Z,7.60
2017-11-12T09:24:14.362Z,7.37
2017-11-12T09:26:42.503Z,7.63
2017-11-12T09:29:11.417Z,6.33
2017-11-12T09:31:40.315Z,8.13
2017-11-12T09:34:08.484Z,7.60
2017-11-12T09:36:37.400Z,8.13
2017-11-12T09:39:05.555Z,7.53
2017-11-12T09:41:33.715Z,8.47
2017-11-12T09:44:01.843Z,8.03
2017-11-12T09:46:30.003Z,9.53
2017-11-12T09:48:58.139Z,10.23
2017-11-12T09:51:26.302Z,9.40
2017-11-12T09:53:54.436Z,9.50
2017-11-12T09:56:22.589Z,9.37
2017-11-12T09:58:50.757Z,9.10
2017-11-12T10:01:18.882Z,8.10
2017-11-12T10:03:47.804Z,7.37
2017-11-12T10:06:16.022Z,7.30
2017-11-12T10:08:44.174Z,8.30
2017-11-12T10:11:12.288Z,8.50
2017-11-12T10:13:41.210Z,7.20
2017-11-12T10:16:09.349Z,7.63
2017-11-12T10:18:38.241Z,6.73
2017-11-12T10:21:07.153Z,7.60
2017-11-12T10:23:35.319Z,7.00
2017-11-12T10:26:04.241Z,8.70
2017-11-12T10:28:32.358Z,7.90
2017-11-12T10:31:01.287Z,8.53
2017-11-12T10:33:29.422Z,8.37
2017-11-12T10:35:58.360Z,9.40
2017-11-12T10:38:26.506Z,8.27
2017-11-12T10:40:54.657Z,8.93
2017-11-12T10:43:23.570Z,9.60
2017-11-12T10:45:51.721Z,12.20
2017-11-12T10:48:19.868Z,8.97
2017-11-12T10:50:48.018Z,12.90
2017-11-12T10:53:16.145Z,14.07
2017-11-12T10:55:45.059Z,9.43
2017-11-12T10:58:13.202Z,11.20
2017-11-12T11:00:42.118Z,11.47
2017-11-12T11:03:10.265Z,9.90
2017-11-12T11:05:38.588Z,9.57
2017-11-12T11:08:06.726Z,8.93
2017-11-12T11:10:34.855Z,9.20
2017-11-12T11:13:03.008Z,8.13
2017-11-12T11:15:31.174Z,10.73
2017-11-12T11:17:59.313Z,9.67
2017-11-12T11:20:28.235Z,6.83
2017-11-12T11:22:56.341Z,8.03
2017-11-12T11:25:24.520Z,9.37
2017-11-12T11:27:54.169Z,9.80
2017-11-12T11:30:23.150Z,8.50
2017-11-12T11:32:52.171Z,6.87
2017-11-12T11:35:20.309Z,5.37
2017-11-12T11:37:49.282Z,6.23
2017-11-12T11:40:17.411Z,5.13
2017-11-12T11:42:45.586Z,4.00
2017-11-12T11:45:13.686Z,3.87
2017-11-12T11:47:41.825Z,4.53
2017-11-12T11:50:09.965Z,4.10
2017-11-12T11:52:38.998Z,3.90
2017-11-12T11:55:07.124Z,4.10
2017-11-12T11:57:36.113Z,4.53
2017-11-12T12:00:05.097Z,5.53
2017-11-12T12:02:34.026Z,4.30
2017-11-12T12:05:02.163Z,3.50
2017-11-12T12:07:31.082Z,4.47
2017-11-12T12:09:59.212Z,4.27
2017-11-12T12:12:28.875Z,3.90
2017-11-12T12:14:57.003Z,4.77
2017-11-12T12:17:25.126Z,4.90
2017-11-12T12:19:53.377Z,4.90
2017-11-12T12:22:21.555Z,4.60
2017-11-12T12:24:49.697Z,4.47
2017-11-12T12:27:17.834Z,4.27
2017-11-12T12:29:45.977Z,4.10
2017-11-12T12:32:14.107Z,3.60
2017-11-12T12:34:43.037Z,10.67
2017-11-12T12:37:11.190Z,3.40
2017-11-12T12:39:40.088Z,3.43
2017-11-12T12:42:09.008Z,4.33
2017-11-12T12:44:37.190Z,5.10
2017-11-12T12:47:05.331Z,4.93
2017-11-12T12:49:33.465Z,4.10
2017-11-12T12:52:01.635Z,6.13
2017-11-12T12:54:29.766Z,3.43
2017-11-12T12:56:58.748Z,3.87
2017-11-12T12:59:26.900Z,3.93
2017-11-12T13:01:55.792Z,4.60
2017-11-12T13:04:24.697Z,4.20
2017-11-12T13:06:52.848Z,3.87
2017-11-12T13:09:21.741Z,3.70
2017-11-12T13:11:50.654Z,4.70
2017-11-12T13:14:18.817Z,4.73
2017-11-12T13:16:46.944Z,3.70
2017-11-12T13:19:15.536Z,3.00
2017-11-12T13:21:43.706Z,3.70
2017-11-12T13:24:13.349Z,3.40
2017-11-12T13:26:41.513Z,3.23
2017-11-12T13:29:10.691Z,4.67
2017-11-12T13:31:39.595Z,3.60
2017-11-12T13:34:08.518Z,2.83
2017-11-12T13:36:36.670Z,3.00
2017-11-12T13:39:04.826Z,3.70
2017-11-12T13:41:33.706Z,3.70
2017-11-12T13:44:01.847Z,4.20
2017-11-12T13:46:30.006Z,3.43
2017-11-12T13:48:58.144Z,5.20
2017-11-12T13:51:26.335Z,5.87
2017-11-12T13:53:54.458Z,6.30
2017-11-12T13:56:22.592Z,7.13
2017-11-12T13:58:50.741Z,6.33
2017-11-12T14:01:18.884Z,6.40
2017-11-12T14:03:47.835Z,6.17
2017-11-12T14:06:16.007Z,4.93
2017-11-12T14:08:44.142Z,4.10
2017-11-12T14:11:13.054Z,4.57
2017-11-12T14:13:41.204Z,4.60
2017-11-12T14:16:10.106Z,4.10
2017-11-12T14:18:38.273Z,4.27
2017-11-12T14:21:06.488Z,4.50
2017-11-12T14:23:34.641Z,4.43
2017-11-12T14:26:02.793Z,4.10
2017-11-12T14:28:30.973Z,4.20
2017-11-12T14:30:59.107Z,4.47
2017-11-12T14:33:27.254Z,3.73
2017-11-12T14:35:55.370Z,4.40
2017-11-12T14:38:24.301Z,4.13
2017-11-12T14:40:52.427Z,4.13
2017-11-12T14:43:21.356Z,4.20
2017-11-12T14:45:49.491Z,4.50
2017-11-12T14:48:18.372Z,4.23
2017-11-12T14:50:47.296Z,4.20
2017-11-12T14:53:15.476Z,4.37
2017-11-12T14:55:43.632Z,4.97
2017-11-12T14:58:11.836Z,5.43
2017-11-12T15:00:39.982Z,4.17
2017-11-12T15:03:08.142Z,3.97
2017-11-12T15:05:37.031Z,3.50
2017-11-12T15:08:05.958Z,4.00
2017-11-12T15:10:34.151Z,3.73
2017-11-12T15:13:03.853Z,3.80
2017-11-12T15:15:32.035Z,4.07
2017-11-12T15:18:00.176Z,3.23
2017-11-12T15:20:28.359Z,3.53
2017-11-12T15:22:56.512Z,4.03
2017-11-12T15:25:24.721Z,4.20
2017-11-12T15:27:53.254Z,3.50
2017-11-12T15:30:21.432Z,3.67
2017-11-12T15:32:50.377Z,3.60
2017-11-12T15:35:18.532Z,2.97
2017-11-12T15:37:46.723Z,2.90
2017-11-12T15:40:14.902Z,2.43
2017-11-12T15:42:43.073Z,2.60
2017-11-12T15:45:11.238Z,2.20
2017-11-12T15:47:39.415Z,2.37
2017-11-12T15:50:07.664Z,2.07
2017-11-12T15:52:36.573Z,2.70
2017-11-12T15:55:04.704Z,5.23
2017-11-12T15:57:32.943Z,6.40
2017-11-12T16:00:01.877Z,7.10
2017-11-12T16:02:30.013Z,5.23
2017-11-12T16:04:58.157Z,4.63
2017-11-12T16:07:26.308Z,3.50
2017-11-12T16:09:54.509Z,3.07
2017-11-12T16:12:22.625Z,2.57
2017-11-12T16:14:51.521Z,2.33
2017-11-12T16:17:19.736Z,3.00
2017-11-12T16:19:47.896Z,2.23
2017-11-12T16:22:16.059Z,2.53
2017-11-12T16:24:44.209Z,2.20
2017-11-12T16:27:12.354Z,1.87
2017-11-12T16:29:40.522Z,2.00
2017-11-12T16:32:08.662Z,2.20
2017-11-12T16:34:36.799Z,1.97
2017-11-12T16:37:04.943Z,2.50
2017-11-12T16:39:33.865Z,1.97
2017-11-12T16:42:02.028Z,2.00
2017-11-12T16:44:30.932Z,1.70
2017-11-12T16:46:59.083Z,2.20
2017-11-12T16:49:27.983Z,2.00
2017-11-12T16:51:56.163Z,2.13
2017-11-12T16:54:24.287Z,2.43
2017-11-12T16:56:52.436Z,1.90
2017-11-12T16:59:20.578Z,2.27
2017-11-12T17:01:48.706Z,2.17
2017-11-12T17:04:16.851Z,2.37
2017-11-12T17:06:44.987Z,2.00
2017-11-12T17:09:13.157Z,1.90
2017-11-12T17:11:42.054Z,2.17
2017-11-12T17:14:11.004Z,2.00
2017-11-12T17:16:39.209Z,2.17
2017-11-12T17:19:08.145Z,2.40
2017-11-12T17:21:36.273Z,2.30
2017-11-12T17:24:05.193Z,3.00
2017-11-12T17:26:34.103Z,2.50
2017-11-12T17:29:02.239Z,3.23
2017-11-12T17:31:30.402Z,2.57
2017-11-12T17:33:59.321Z,2.73
2017-11-12T17:36:28.326Z,3.03
2017-11-12T17:38:56.460Z,3.00
2017-11-12T17:41:24.627Z,3.83
2017-11-12T17:43:53.538Z,2.97
2017-11-12T17:46:21.720Z,3.40
2017-11-12T17:48:49.860Z,3.50
2017-11-12T17:51:19.400Z,3.80
2017-11-12T17:53:47.644Z,4.00
2017-11-12T17:56:19.199Z,3.57
2017-11-12T17:58:48.164Z,3.37
2017-11-12T18:01:16.338Z,2.97
2017-11-12T18:03:44.494Z,3.03
2017-11-12T18:06:12.637Z,3.20
2017-11-12T18:08:40.779Z,3.80
2017-11-12T18:11:08.917Z,3.40
2017-11-12T18:13:37.066Z,3.27
2017-11-12T18:16:05.201Z,3.67
2017-11-12T18:18:33.346Z,3.90
2017-11-12T18:21:01.514Z,3.40
2017-11-12T18:23:29.647Z,4.27
2017-11-12T18:25:57.804Z,6.63
2017-11-12T18:28:25.945Z,9.07
2017-11-12T18:30:54.844Z,5.80
2017-11-12T18:33:23.768Z,4.90
2017-11-12T18:35:51.920Z,4.20
2017-11-12T18:38:20.051Z,3.43
2017-11-12T18:40:49.704Z,3.40
2017-11-12T18:43:17.945Z,4.80
2017-11-12T18:45:46.867Z,4.60
2017-11-12T18:48:15.001Z,6.80
2017-11-12T18:50:57.916Z,5.43
2017-11-12T18:53:26.076Z,3.77
2017-11-12T18:58:57.343Z,3.20
2017-11-12T19:01:31.186Z,3.43
2017-11-12T19:04:05.781Z,3.00
2017-11-12T19:06:35.438Z,2.90
2017-11-12T19:09:03.621Z,2.90
2017-11-12T19:11:31.762Z,3.17
2017-11-12T19:14:00.785Z,3.10
2017-11-12T19:16:29.043Z,3.60
2017-11-12T19:18:57.782Z,3.80
2017-11-12T19:21:31.775Z,4.00
2017-11-12T19:24:03.724Z,4.13
2017-11-12T19:26:31.904Z,3.53
2017-11-12T19:29:00.060Z,3.50
2017-11-12T19:31:28.182Z,3.97
2017-11-12T19:33:57.913Z,3.93
2017-11-12T19:36:26.802Z,3.27
2017-11-12T19:38:55.739Z,3.80
2017-11-12T19:41:24.072Z,4.10
2017-11-12T19:43:53.029Z,4.50
2017-11-12T19:46:21.212Z,3.80
2017-11-12T19:48:50.891Z,3.60
2017-11-12T19:51:19.046Z,4.30
2017-11-12T19:53:47.232Z,4.27
2017-11-12T19:56:15.497Z,3.73
2017-11-12T19:58:43.654Z,3.80
2017-11-12T20:01:11.845Z,3.83
2017-11-12T20:03:40.300Z,3.70
2017-11-12T20:06:09.224Z,3.77
2017-11-12T20:08:37.368Z,3.50
2017-11-12T20:11:05.592Z,4.00
2017-11-12T20:13:35.380Z,4.43
2017-11-12T20:16:03.555Z,4.00
2017-11-12T20:18:31.736Z,4.90
2017-11-12T20:20:59.898Z,5.40
2017-11-12T20:23:28.052Z,4.70
2017-11-12T20:25:56.212Z,4.73
2017-11-12T20:28:24.407Z,5.90
2017-11-12T20:30:52.538Z,5.00
2017-11-12T20:33:20.744Z,4.97
2017-11-12T20:35:49.229Z,7.37
2017-11-12T20:38:17.416Z,4.13
2017-11-12T20:40:45.549Z,5.13
2017-11-12T20:43:14.513Z,6.37
2017-11-12T20:45:42.664Z,8.90
2017-11-12T20:48:10.863Z,12.30
2017-11-12T20:50:39.074Z,9.53
2017-11-12T20:53:07.309Z,15.70
2017-11-12T20:55:36.262Z,16.00
2017-11-12T20:58:04.438Z,14.77
2017-11-12T21:00:38.307Z,13.00
2017-11-12T21:03:06.517Z,7.53
2017-11-12T21:05:35.152Z,6.10
2017-11-12T21:08:03.283Z,6.97
2017-11-12T21:10:31.429Z,6.30
2017-11-12T21:12:59.587Z,6.47
2017-11-12T21:15:27.732Z,6.17
2017-11-12T21:17:56.660Z,5.93
2017-11-12T21:20:40.486Z,5.10
2017-11-12T21:23:09.399Z,6.67
2017-11-12T21:25:37.534Z,7.90
2017-11-12T21:28:22.103Z,8.80
2017-11-12T21:30:51.470Z,8.70
2017-11-12T21:33:25.969Z,7.60
2017-11-12T21:35:54.742Z,7.40
2017-11-12T21:38:22.887Z,6.40
2017-11-12T21:40:52.011Z,9.13
2017-11-12T21:43:20.177Z,6.70
2017-11-12T21:45:48.460Z,7.63
2017-11-12T21:48:16.602Z,6.97
2017-11-12T21:50:44.741Z,6.03
2017-11-12T21:53:13.661Z,5.67
2017-11-12T21:55:42.557Z,6.00
2017-11-12T21:58:10.704Z,5.77
2017-11-12T22:00:39.621Z,6.47
2017-11-12T22:03:07.757Z,6.30
2017-11-12T22:05:35.879Z,6.00
2017-11-12T22:08:04.042Z,6.70
2017-11-12T22:10:32.183Z,6.20
2017-11-12T22:13:00.323Z,5.67
2017-11-12T22:15:28.447Z,5.10
2017-11-12T22:17:56.586Z,5.30
2017-11-12T22:20:24.727Z,6.43
2017-11-12T22:22:52.856Z,5.70
2017-11-12T22:25:21.774Z,5.70
2017-11-12T22:27:49.906Z,5.77
2017-11-12T22:30:19.542Z,5.30
2017-11-12T22:32:48.528Z,7.03
2017-11-12T22:35:16.673Z,5.80
2017-11-12T22:37:45.585Z,6.70
2017-11-12T22:40:14.506Z,6.13
2017-11-12T22:42:42.648Z,6.73
2017-11-12T22:45:11.593Z,5.43
2017-11-12T22:47:39.750Z,6.37
2017-11-12T22:50:07.908Z,5.50
2017-11-12T22:52:36.070Z,5.80
2017-11-12T22:55:04.969Z,5.77
2017-11-12T22:57:33.103Z,5.27
2017-11-12T23:00:01.239Z,4.50
2017-11-12T23:02:29.370Z,4.17
2017-11-12T23:04:57.518Z,4.77
2017-11-12T23:07:26.418Z,5.40
2017-11-12T23:09:54.548Z,4.80
2017-11-12T23:12:22.689Z,4.50
2017-11-12T23:14:50.866Z,4.90
2017-11-12T23:17:19.007Z,4.90
2017-11-12T23:19:47.136Z,5.30
2017-11-12T23:22:15.270Z,5.17
2017-11-12T23:24:43.428Z,5.20
2017-11-12T23:27:12.334Z,5.23
2017-11-12T23:29:40.441Z,4.77
2017-11-12T23:32:08.578Z,4.83
2017-11-12T23:34:36.705Z,4.50
2017-11-12T23:37:05.622Z,5.27
2017-11-12T23:39:34.506Z,4.70
2017-11-12T23:42:03.417Z,5.23
2017-11-12T23:44:31.534Z,4.80
2017-11-12T23:46:59.692Z,4.77
2017-11-12T23:49:27.816Z,5.10
2017-11-12T23:51:56.714Z,5.03
2017-11-12T23:54:25.593Z,5.57
2017-11-12T23:56:54.489Z,4.87
2017-11-12T23:59:23.394Z,4.77
